createdAt,value
2023-03-04T00:00:55.958Z,101358.50
2023-03-04T00:05:57.305Z,101358.44
2023-03-04T00:10:58.616Z,101357.16
2023-03-04T00:15:59.985Z,101355.13
2023-03-04T00:21:01.444Z,101356.38
2023-03-04T00:26:02.901Z,101356.03
2023-03-04T00:31:04.433Z,101355.09
2023-03-04T00:36:05.985Z,101356.53
2023-03-04T00:41:07.320Z,101357.00
2023-03-04T00:46:08.680Z,101352.78
2023-03-04T00:51:10.077Z,101352.22
2023-03-04T00:56:11.393Z,101347.56
2023-03-04T01:01:12.706Z,101347.19
2023-03-04T01:06:14.077Z,101339.94
2023-03-04T01:11:15.503Z,101343.25
2023-03-04T01:16:17.033Z,101335.78
2023-03-04T01:21:18.441Z,101335.16
2023-03-04T01:26:19.839Z,101325.88
2023-03-04T01:31:21.200Z,101319.50
2023-03-04T01:36:22.690Z,101309.03
2023-03-04T01:41:25.678Z,101307.66
2023-03-04T01:46:27.179Z,101285.03
2023-03-04T01:51:28.610Z,101287.44
2023-03-04T01:56:34.503Z,101284.41
2023-03-04T02:01:36.564Z,101284.44
2023-03-04T02:06:38.833Z,101281.31
2023-03-04T02:11:40.786Z,101275.88
2023-03-04T02:16:42.285Z,101264.34
2023-03-04T02:21:43.622Z,101262.13
2023-03-04T02:26:45.624Z,101253.47
2023-03-04T02:31:48.062Z,101257.88
2023-03-04T02:36:51.361Z,101255.47
2023-03-04T02:41:53.638Z,101245.66
2023-03-04T02:46:55.463Z,101244.53
2023-03-04T02:52:06.372Z,101247.56
2023-03-04T02:57:08.877Z,101248.91
2023-03-04T03:02:10.325Z,101242.50
2023-03-04T03:07:11.772Z,101238.00
2023-03-04T03:12:13.153Z,101240.25
2023-03-04T03:17:14.495Z,101240.50
2023-03-04T03:22:15.913Z,101233.97
2023-03-04T03:27:17.393Z,101223.59
2023-03-04T03:32:18.748Z,101232.31
2023-03-04T03:37:20.143Z,101224.19
2023-03-04T03:42:21.728Z,101215.81
2023-03-04T03:47:23.334Z,101216.94
2023-03-04T03:52:24.780Z,101217.13
2023-03-04T03:57:26.364Z,101224.50
2023-03-04T04:02:27.833Z,101225.31
2023-03-04T04:07:29.374Z,101223.50
2023-03-04T04:12:30.725Z,101217.66
2023-03-04T04:17:32.211Z,101214.63
2023-03-04T04:22:33.643Z,101211.66
2023-03-04T04:27:34.974Z,101206.75
2023-03-04T04:32:36.676Z,101207.72
2023-03-04T04:37:38.241Z,101202.22
2023-03-04T04:42:39.760Z,101197.53
2023-03-04T04:47:41.168Z,101194.09
2023-03-04T04:52:42.616Z,101187.31
2023-03-04T04:57:44.099Z,101196.69
2023-03-04T05:02:45.460Z,101195.72
2023-03-04T05:07:46.777Z,101189.53
2023-03-04T05:12:48.113Z,101191.84
2023-03-04T05:17:49.626Z,101191.72
2023-03-04T05:22:51.131Z,101190.13
2023-03-04T05:27:52.648Z,101190.44
2023-03-04T05:32:54.126Z,101199.47
2023-03-04T05:37:55.611Z,101194.81
2023-03-04T05:42:57.126Z,101186.63
2023-03-04T05:47:58.580Z,101193.03
2023-03-04T05:53:00.114Z,101190.09
2023-03-04T05:58:01.726Z,101192.44
2023-03-04T06:03:03.337Z,101199.78
2023-03-04T06:08:04.904Z,101201.56
2023-03-04T06:13:06.384Z,101198.69
2023-03-04T06:18:07.939Z,101199.19
2023-03-04T06:23:09.296Z,101202.31
2023-03-04T06:28:10.658Z,101208.88
2023-03-04T06:33:12.123Z,101220.53
2023-03-04T06:38:13.452Z,101223.22
2023-03-04T06:43:14.927Z,101216.25
2023-03-04T06:48:16.404Z,101229.03
2023-03-04T06:53:17.817Z,101240.41
2023-03-04T06:58:19.194Z,101243.91
2023-03-04T07:03:21.005Z,101244.91
2023-03-04T07:08:22.407Z,101247.72
2023-03-04T07:13:23.835Z,101255.53
2023-03-04T07:18:25.243Z,101252.78
2023-03-04T07:23:26.824Z,101259.81
2023-03-04T07:28:28.345Z,101255.38
2023-03-04T07:33:29.669Z,101252.34
2023-03-04T07:38:31.026Z,101253.13
2023-03-04T07:43:32.468Z,101266.75
2023-03-04T07:48:34.107Z,101264.75
2023-03-04T07:53:35.897Z,101264.09
2023-03-04T07:58:37.209Z,101268.38
2023-03-04T08:03:38.760Z,101279.63
2023-03-04T08:08:45.425Z,101273.69
2023-03-04T08:13:47.026Z,101282.41
2023-03-04T08:18:50.010Z,101276.31
2023-03-04T08:23:51.916Z,101280.91
2023-03-04T08:28:53.888Z,101277.09
2023-03-04T08:33:55.283Z,101272.41
2023-03-04T08:38:56.643Z,101266.28
2023-03-04T08:43:58.551Z,101274.31
2023-03-04T08:48:59.919Z,101269.94
2023-03-04T08:54:04.410Z,101274.06
2023-03-04T08:59:05.862Z,101275.09
2023-03-04T09:04:07.392Z,101273.72
2023-03-04T09:09:09.025Z,101269.97
2023-03-04T09:14:10.469Z,101271.50
2023-03-04T09:19:11.880Z,101267.47
2023-03-04T09:24:13.253Z,101271.66
2023-03-04T09:29:14.563Z,101271.19
2023-03-04T09:34:16.468Z,101278.84
2023-03-04T09:39:17.848Z,101277.16
2023-03-04T09:44:31.053Z,101275.66
2023-03-04T09:49:32.511Z,101274.47
2023-03-04T09:54:33.824Z,101272.00
2023-03-04T09:59:44.796Z,101288.31
2023-03-04T10:04:51.457Z,101277.25
2023-03-04T10:10:19.022Z,101271.13
2023-03-04T10:15:46.434Z,101268.44
2023-03-04T10:20:56.954Z,101269.47
2023-03-04T10:25:59.554Z,101264.00
2023-03-04T10:31:19.163Z,101261.13
2023-03-04T10:36:29.811Z,101261.13
2023-03-04T10:41:31.859Z,101268.75
2023-03-04T10:46:33.462Z,101263.56
2023-03-04T10:51:47.039Z,101263.22
2023-03-04T10:56:54.160Z,101259.66
2023-03-04T11:01:55.602Z,101246.63
2023-03-04T11:06:57.001Z,101253.66
2023-03-04T11:12:02.469Z,101251.97
2023-03-04T11:17:24.091Z,101252.34
2023-03-04T11:22:27.611Z,101238.97
2023-03-04T11:27:38.404Z,101230.13
2023-03-04T11:32:42.184Z,101239.16
2023-03-04T11:38:02.455Z,101229.31
2023-03-04T11:43:12.775Z,101232.00
2023-03-04T11:48:14.200Z,101224.84
2023-03-04T11:53:29.315Z,101216.22
2023-03-04T11:58:30.652Z,101205.16
2023-03-04T12:03:35.142Z,101195.84
2023-03-04T12:08:47.750Z,101185.56
2023-03-04T12:14:01.963Z,101184.81
2023-03-04T12:19:06.058Z,101178.69
2023-03-04T12:24:26.871Z,101166.97
2023-03-04T12:29:51.669Z,101166.31
2023-03-04T12:35:11.657Z,101157.56
2023-03-04T12:40:24.889Z,101158.22
2023-03-04T12:45:45.086Z,101150.66
2023-03-04T12:50:49.450Z,101135.75
2023-03-04T12:55:52.478Z,101136.34
2023-03-04T13:01:03.158Z,101126.53
2023-03-04T13:06:24.803Z,101125.91
2023-03-04T13:11:26.115Z,101114.50
2023-03-04T13:16:39.709Z,101109.06
2023-03-04T13:21:46.402Z,101107.97
2023-03-04T13:26:47.805Z,101094.69
2023-03-04T13:31:59.542Z,101096.28
2023-03-04T13:37:00.908Z,101088.41
2023-03-04T13:42:03.086Z,101092.78
2023-03-04T13:47:27.407Z,101090.94
2023-03-04T13:52:41.829Z,101086.44
2023-03-04T13:57:48.815Z,101083.31
2023-03-04T14:02:50.185Z,101083.16
2023-03-04T14:07:51.688Z,101067.38
2023-03-04T14:12:54.585Z,101070.56
2023-03-04T14:17:57.561Z,101065.06
2023-03-04T14:23:00.154Z,101060.47
2023-03-04T14:28:12.120Z,101064.59
2023-03-04T14:33:18.697Z,101050.97
2023-03-04T14:38:24.822Z,101054.38
2023-03-04T14:43:27.571Z,101038.28
2023-03-04T14:48:31.008Z,101032.66
2023-03-04T14:53:33.225Z,101026.56
2023-03-04T14:58:34.546Z,101031.06
2023-03-04T15:03:35.995Z,101026.81
2023-03-04T15:08:38.392Z,101021.00
2023-03-04T15:13:41.448Z,101019.91
2023-03-04T15:18:59.893Z,101014.72
2023-03-04T15:24:01.376Z,101015.31
2023-03-04T15:29:17.488Z,101009.84
2023-03-04T15:34:21.301Z,101007.47
2023-03-04T15:39:22.701Z,101001.81
2023-03-04T15:44:24.624Z,101009.13
2023-03-04T15:49:25.999Z,100998.91
2023-03-04T15:54:28.508Z,101000.78
2023-03-04T15:59:29.818Z,100998.16
2023-03-04T16:04:31.209Z,101004.38
2023-03-04T16:09:32.634Z,101001.06
2023-03-04T16:14:34.234Z,101001.00
2023-03-04T16:19:35.545Z,100998.63
2023-03-04T16:24:37.067Z,100997.56
2023-03-04T16:29:38.483Z,100993.00
2023-03-04T16:34:39.885Z,100984.44
2023-03-04T16:39:42.039Z,100997.78
2023-03-04T16:44:43.437Z,100994.31
2023-03-04T16:49:44.916Z,100990.75
2023-03-04T16:54:46.499Z,100995.66
2023-03-04T16:59:47.928Z,100992.44
2023-03-04T17:04:50.267Z,100996.88
2023-03-04T17:09:52.682Z,100991.69
2023-03-04T17:14:54.056Z,100985.84
2023-03-04T17:19:55.409Z,100992.88
2023-03-04T17:24:56.828Z,100994.81
2023-03-04T17:29:58.344Z,100985.34
2023-03-04T17:35:00.088Z,100996.84
2023-03-04T17:40:02.677Z,100989.06
2023-03-04T17:45:04.314Z,100980.25
2023-03-04T17:50:06.033Z,100988.13
2023-03-04T17:55:07.703Z,100991.00
2023-03-04T18:00:09.449Z,101001.31
2023-03-04T18:05:10.932Z,100986.59
2023-03-04T18:10:12.416Z,100982.09
2023-03-04T18:15:13.838Z,100989.13
2023-03-04T18:20:15.289Z,100983.22
2023-03-04T18:25:16.761Z,100980.59
2023-03-04T18:30:18.464Z,100983.28
2023-03-04T18:35:20.650Z,100977.22
2023-03-04T18:40:22.064Z,100979.91
2023-03-04T18:45:23.448Z,100977.28
2023-03-04T18:50:24.954Z,100980.19
2023-03-04T18:55:26.612Z,100980.19
2023-03-04T19:00:28.856Z,100972.13
2023-03-04T19:05:31.804Z,100972.38
2023-03-04T19:10:33.192Z,100976.03
2023-03-04T19:15:35.752Z,100980.53
2023-03-04T19:20:37.087Z,100976.78
2023-03-04T19:25:39.225Z,100984.91
2023-03-04T19:30:40.757Z,100983.56
2023-03-04T19:35:43.096Z,100988.63
2023-03-04T19:40:44.727Z,100984.81
2023-03-04T19:45:53.328Z,100976.38
2023-03-04T19:50:54.706Z,100972.31
2023-03-04T19:55:56.043Z,100978.59
2023-03-04T20:00:57.439Z,100979.16
2023-03-04T20:06:06.588Z,100973.41
2023-03-04T20:11:11.902Z,100980.53
2023-03-04T20:16:13.957Z,100972.94
2023-03-04T20:21:15.678Z,100963.00
2023-03-04T20:26:17.179Z,100969.69
2023-03-04T20:31:20.546Z,100971.22
2023-03-04T20:36:23.215Z,100973.13
2023-03-04T20:41:25.495Z,100974.16
2023-03-04T20:46:45.846Z,100976.13
2023-03-04T20:51:47.836Z,100978.72
2023-03-04T20:56:49.604Z,100981.47
2023-03-04T21:01:51.045Z,100974.00
2023-03-04T21:06:55.200Z,100977.47
2023-03-04T21:11:56.568Z,100975.00
2023-03-04T21:16:59.171Z,100970.97
2023-03-04T21:22:01.520Z,100960.34
2023-03-04T21:27:03.046Z,100963.69
2023-03-04T21:32:21.134Z,100962.56
2023-03-04T21:37:25.285Z,100962.75
2023-03-04T21:42:26.657Z,100969.13
2023-03-04T21:47:27.987Z,100962.63
2023-03-04T21:52:29.757Z,100967.50
2023-03-04T21:57:31.199Z,100960.28
2023-03-04T22:02:32.601Z,100952.78
2023-03-04T22:07:33.941Z,100959.06
2023-03-04T22:12:35.270Z,100956.44
2023-03-04T22:17:36.716Z,100948.59
2023-03-04T22:22:38.070Z,100952.69
2023-03-04T22:27:39.485Z,100958.78
2023-03-04T22:32:43.823Z,100944.28
2023-03-04T22:37:45.419Z,100951.94
2023-03-04T22:42:47.426Z,100948.97
2023-03-04T22:47:52.313Z,100949.41
2023-03-04T22:52:53.879Z,100944.28
2023-03-04T22:57:55.248Z,100939.72
2023-03-04T23:02:57.242Z,100944.31
2023-03-04T23:07:58.612Z,100950.66
2023-03-04T23:13:00.002Z,100936.34
2023-03-04T23:18:01.370Z,100932.72
2023-03-04T23:23:02.746Z,100939.97
2023-03-04T23:28:04.626Z,100930.50
2023-03-04T23:33:06.064Z,100921.97
2023-03-04T23:38:07.477Z,100925.16
2023-03-04T23:43:08.900Z,100923.41
2023-03-04T23:48:10.241Z,100918.31
2023-03-04T23:53:11.629Z,100908.28
2023-03-04T23:58:12.977Z,100908.34
